sensor_id;sensor_type;location;lat;lon;timestamp;P1;durP1;ratioP1;P2;durP2;ratioP2
2710;SDS011;20721;47.402;8.550;2024-03-06T00:01:49;2.07;;;2.07;;
2710;SDS011;20721;47.402;8.550;2024-03-06T00:03:49;2.17;;;2.17;;
2710;SDS011;20721;47.402;8.550;2024-03-06T00:05:49;2.19;;;2.19;;
2710;SDS011;20721;47.402;8.550;2024-03-06T00:07:49;3.96;;;3.96;;
2710;SDS011;20721;47.402;8.550;2024-03-06T00:10:50;2.47;;;2.47;;
2710;SDS011;20721;47.402;8.550;2024-03-06T00:12:49;1.11;;;1.11;;
2710;SDS011;20721;47.402;8.550;2024-03-06T00:14:49;2.02;;;2.02;;
2710;SDS011;20721;47.402;8.550;2024-03-06T00:17:49;4.16;;;4.16;;
2710;SDS011;20721;47.402;8.550;2024-03-06T00:19:49;1.61;;;1.61;;
2710;SDS011;20721;47.402;8.550;2024-03-06T00:21:49;1.56;;;1.56;;
2710;SDS011;20721;47.402;8.550;2024-03-06T00:23:49;0.64;;;0.64;;
2710;SDS011;20721;47.402;8.550;2024-03-06T00:26:49;1.16;;;1.16;;
2710;SDS011;20721;47.402;8.550;2024-03-06T00:28:49;1.22;;;1.22;;
2710;SDS011;20721;47.402;8.550;2024-03-06T00:30:49;1.22;;;1.22;;
2710;SDS011;20721;47.402;8.550;2024-03-06T00:32:49;0.99;;;0.99;;
2710;SDS011;20721;47.402;8.550;2024-03-06T00:34:49;1.32;;;1.32;;
2710;SDS011;20721;47.402;8.550;2024-03-06T00:36:49;1.13;;;1.13;;
2710;SDS011;20721;47.402;8.550;2024-03-06T00:38:49;0.97;;;0.97;;
2710;SDS011;20721;47.402;8.550;2024-03-06T00:40:49;1.27;;;1.27;;
2710;SDS011;20721;47.402;8.550;2024-03-06T00:42:51;1.03;;;1.03;;
2710;SDS011;20721;47.402;8.550;2024-03-06T00:44:49;1.04;;;1.04;;
2710;SDS011;20721;47.402;8.550;2024-03-06T00:46:49;1.14;;;1.14;;
2710;SDS011;20721;47.402;8.550;2024-03-06T00:48:52;1.28;;;1.28;;
2710;SDS011;20721;47.402;8.550;2024-03-06T00:51:59;1.24;;;1.24;;
2710;SDS011;20721;47.402;8.550;2024-03-06T00:53:49;0.78;;;0.78;;
2710;SDS011;20721;47.402;8.550;2024-03-06T00:57:49;0.77;;;0.77;;
2710;SDS011;20721;47.402;8.550;2024-03-06T01:00:49;0.91;;;0.91;;
2710;SDS011;20721;47.402;8.550;2024-03-06T01:02:49;1.01;;;1.01;;
2710;SDS011;20721;47.402;8.550;2024-03-06T01:04:49;0.83;;;0.83;;
2710;SDS011;20721;47.402;8.550;2024-03-06T01:06:50;0.70;;;0.70;;
2710;SDS011;20721;47.402;8.550;2024-03-06T01:09:49;0.85;;;0.85;;
2710;SDS011;20721;47.402;8.550;2024-03-06T01:11:49;0.85;;;0.85;;
2710;SDS011;20721;47.402;8.550;2024-03-06T01:13:49;0.84;;;0.84;;
2710;SDS011;20721;47.402;8.550;2024-03-06T01:15:49;0.66;;;0.66;;
2710;SDS011;20721;47.402;8.550;2024-03-06T01:17:49;1.04;;;1.04;;
2710;SDS011;20721;47.402;8.550;2024-03-06T01:19:49;0.86;;;0.86;;
2710;SDS011;20721;47.402;8.550;2024-03-06T01:21:49;0.90;;;0.90;;
2710;SDS011;20721;47.402;8.550;2024-03-06T01:23:49;0.85;;;0.85;;
2710;SDS011;20721;47.402;8.550;2024-03-06T01:25:49;0.80;;;0.80;;
2710;SDS011;20721;47.402;8.550;2024-03-06T01:27:49;1.09;;;1.09;;
2710;SDS011;20721;47.402;8.550;2024-03-06T01:29:49;0.70;;;0.70;;
2710;SDS011;20721;47.402;8.550;2024-03-06T01:31:49;0.72;;;0.72;;
2710;SDS011;20721;47.402;8.550;2024-03-06T01:33:49;0.66;;;0.66;;
2710;SDS011;20721;47.402;8.550;2024-03-06T01:35:49;0.90;;;0.90;;
2710;SDS011;20721;47.402;8.550;2024-03-06T01:37:49;0.84;;;0.84;;
2710;SDS011;20721;47.402;8.550;2024-03-06T01:39:49;0.75;;;0.75;;
2710;SDS011;20721;47.402;8.550;2024-03-06T01:41:55;0.59;;;0.59;;
2710;SDS011;20721;47.402;8.550;2024-03-06T01:43:51;0.92;;;0.92;;
2710;SDS011;20721;47.402;8.550;2024-03-06T01:45:50;1.14;;;1.14;;
2710;SDS011;20721;47.402;8.550;2024-03-06T01:47:49;0.70;;;0.70;;
2710;SDS011;20721;47.402;8.550;2024-03-06T01:49:50;0.73;;;0.73;;
2710;SDS011;20721;47.402;8.550;2024-03-06T01:51:52;1.06;;;1.06;;
2710;SDS011;20721;47.402;8.550;2024-03-06T01:53:49;0.87;;;0.87;;
2710;SDS011;20721;47.402;8.550;2024-03-06T01:55:49;1.27;;;1.27;;
2710;SDS011;20721;47.402;8.550;2024-03-06T01:57:49;0.75;;;0.75;;
2710;SDS011;20721;47.402;8.550;2024-03-06T01:59:49;0.67;;;0.67;;
2710;SDS011;20721;47.402;8.550;2024-03-06T02:01:50;0.74;;;0.74;;
2710;SDS011;20721;47.402;8.550;2024-03-06T02:03:49;0.88;;;0.88;;
2710;SDS011;20721;47.402;8.550;2024-03-06T02:05:50;0.80;;;0.80;;
2710;SDS011;20721;47.402;8.550;2024-03-06T02:07:52;0.65;;;0.65;;
2710;SDS011;20721;47.402;8.550;2024-03-06T02:09:49;1.01;;;1.01;;
2710;SDS011;20721;47.402;8.550;2024-03-06T02:11:49;0.84;;;0.84;;
2710;SDS011;20721;47.402;8.550;2024-03-06T02:13:49;0.69;;;0.69;;
2710;SDS011;20721;47.402;8.550;2024-03-06T02:16:49;0.91;;;0.91;;
2710;SDS011;20721;47.402;8.550;2024-03-06T02:19:00;0.86;;;0.86;;
2710;SDS011;20721;47.402;8.550;2024-03-06T02:20:50;0.67;;;0.67;;
2710;SDS011;20721;47.402;8.550;2024-03-06T02:22:50;0.85;;;0.85;;
2710;SDS011;20721;47.402;8.550;2024-03-06T02:24:54;0.90;;;0.90;;
2710;SDS011;20721;47.402;8.550;2024-03-06T02:26:49;0.76;;;0.76;;
2710;SDS011;20721;47.402;8.550;2024-03-06T02:28:56;0.88;;;0.88;;
2710;SDS011;20721;47.402;8.550;2024-03-06T02:30:49;0.70;;;0.70;;
2710;SDS011;20721;47.402;8.550;2024-03-06T02:32:49;1.12;;;1.12;;
2710;SDS011;20721;47.402;8.550;2024-03-06T02:34:50;0.83;;;0.83;;
2710;SDS011;20721;47.402;8.550;2024-03-06T02:36:50;0.88;;;0.88;;
2710;SDS011;20721;47.402;8.550;2024-03-06T02:38:49;0.93;;;0.93;;
2710;SDS011;20721;47.402;8.550;2024-03-06T02:40:49;1.00;;;1.00;;
2710;SDS011;20721;47.402;8.550;2024-03-06T02:42:49;1.20;;;1.20;;
2710;SDS011;20721;47.402;8.550;2024-03-06T02:44:49;0.89;;;0.89;;
2710;SDS011;20721;47.402;8.550;2024-03-06T02:46:50;1.19;;;1.19;;
2710;SDS011;20721;47.402;8.550;2024-03-06T02:48:49;1.17;;;1.17;;
2710;SDS011;20721;47.402;8.550;2024-03-06T02:50:49;1.33;;;1.33;;
2710;SDS011;20721;47.402;8.550;2024-03-06T02:52:50;1.04;;;1.04;;
2710;SDS011;20721;47.402;8.550;2024-03-06T02:54:51;1.17;;;1.17;;
2710;SDS011;20721;47.402;8.550;2024-03-06T02:56:50;0.85;;;0.85;;
2710;SDS011;20721;47.402;8.550;2024-03-06T02:58:49;1.03;;;1.03;;
2710;SDS011;20721;47.402;8.550;2024-03-06T03:00:49;1.22;;;1.22;;
2710;SDS011;20721;47.402;8.550;2024-03-06T03:02:49;0.92;;;0.92;;
2710;SDS011;20721;47.402;8.550;2024-03-06T03:04:50;1.19;;;1.19;;
2710;SDS011;20721;47.402;8.550;2024-03-06T03:07:49;0.83;;;0.83;;
2710;SDS011;20721;47.402;8.550;2024-03-06T03:09:49;1.13;;;1.13;;
2710;SDS011;20721;47.402;8.550;2024-03-06T03:11:49;0.86;;;0.86;;
2710;SDS011;20721;47.402;8.550;2024-03-06T03:13:49;0.87;;;0.87;;
2710;SDS011;20721;47.402;8.550;2024-03-06T03:15:50;0.97;;;0.97;;
2710;SDS011;20721;47.402;8.550;2024-03-06T03:17:49;1.25;;;1.25;;
2710;SDS011;20721;47.402;8.550;2024-03-06T03:19:50;1.20;;;1.20;;
2710;SDS011;20721;47.402;8.550;2024-03-06T03:22:49;1.49;;;1.49;;
2710;SDS011;20721;47.402;8.550;2024-03-06T03:24:51;0.90;;;0.90;;
2710;SDS011;20721;47.402;8.550;2024-03-06T03:26:52;0.78;;;0.78;;
2710;SDS011;20721;47.402;8.550;2024-03-06T03:28:49;0.90;;;0.90;;
2710;SDS011;20721;47.402;8.550;2024-03-06T03:30:49;1.11;;;1.11;;
2710;SDS011;20721;47.402;8.550;2024-03-06T03:32:49;1.15;;;1.15;;
2710;SDS011;20721;47.402;8.550;2024-03-06T03:34:49;1.00;;;1.00;;
2710;SDS011;20721;47.402;8.550;2024-03-06T03:36:50;1.32;;;1.32;;
2710;SDS011;20721;47.402;8.550;2024-03-06T03:38:50;1.55;;;1.55;;
2710;SDS011;20721;47.402;8.550;2024-03-06T03:40:49;1.35;;;1.35;;
2710;SDS011;20721;47.402;8.550;2024-03-06T03:42:49;1.15;;;1.15;;
2710;SDS011;20721;47.402;8.550;2024-03-06T03:44:49;1.04;;;1.04;;
2710;SDS011;20721;47.402;8.550;2024-03-06T03:46:49;1.26;;;1.26;;
2710;SDS011;20721;47.402;8.550;2024-03-06T03:48:49;0.98;;;0.98;;
2710;SDS011;20721;47.402;8.550;2024-03-06T03:50:49;1.30;;;1.30;;
2710;SDS011;20721;47.402;8.550;2024-03-06T03:52:51;1.18;;;1.18;;
2710;SDS011;20721;47.402;8.550;2024-03-06T03:54:49;0.83;;;0.83;;
2710;SDS011;20721;47.402;8.550;2024-03-06T03:56:49;1.10;;;1.10;;
2710;SDS011;20721;47.402;8.550;2024-03-06T03:58:49;0.94;;;0.94;;
2710;SDS011;20721;47.402;8.550;2024-03-06T04:00:49;1.00;;;1.00;;
2710;SDS011;20721;47.402;8.550;2024-03-06T04:03:50;1.33;;;1.33;;
2710;SDS011;20721;47.402;8.550;2024-03-06T04:05:49;1.06;;;1.06;;
2710;SDS011;20721;47.402;8.550;2024-03-06T04:07:49;1.07;;;1.07;;
2710;SDS011;20721;47.402;8.550;2024-03-06T04:09:49;0.95;;;0.95;;
2710;SDS011;20721;47.402;8.550;2024-03-06T04:11:49;1.28;;;1.28;;
2710;SDS011;20721;47.402;8.550;2024-03-06T04:13:49;1.37;;;1.37;;
2710;SDS011;20721;47.402;8.550;2024-03-06T04:15:49;1.32;;;1.32;;
2710;SDS011;20721;47.402;8.550;2024-03-06T04:17:51;1.30;;;1.30;;
2710;SDS011;20721;47.402;8.550;2024-03-06T04:19:49;1.35;;;1.35;;
2710;SDS011;20721;47.402;8.550;2024-03-06T04:21:52;1.29;;;1.29;;
2710;SDS011;20721;47.402;8.550;2024-03-06T04:23:49;1.33;;;1.33;;
2710;SDS011;20721;47.402;8.550;2024-03-06T04:26:49;1.07;;;1.07;;
2710;SDS011;20721;47.402;8.550;2024-03-06T04:28:49;1.13;;;1.13;;
2710;SDS011;20721;47.402;8.550;2024-03-06T04:30:49;1.20;;;1.20;;
2710;SDS011;20721;47.402;8.550;2024-03-06T04:32:49;1.54;;;1.54;;
2710;SDS011;20721;47.402;8.550;2024-03-06T04:34:49;1.43;;;1.43;;
2710;SDS011;20721;47.402;8.550;2024-03-06T04:36:49;1.18;;;1.18;;
2710;SDS011;20721;47.402;8.550;2024-03-06T04:38:50;1.55;;;1.55;;
2710;SDS011;20721;47.402;8.550;2024-03-06T04:40:49;1.76;;;1.76;;
2710;SDS011;20721;47.402;8.550;2024-03-06T04:42:49;1.63;;;1.63;;
2710;SDS011;20721;47.402;8.550;2024-03-06T04:44:49;1.61;;;1.61;;
2710;SDS011;20721;47.402;8.550;2024-03-06T04:46:50;1.28;;;1.28;;
2710;SDS011;20721;47.402;8.550;2024-03-06T04:48:49;1.48;;;1.48;;
2710;SDS011;20721;47.402;8.550;2024-03-06T04:50:49;1.70;;;1.70;;
2710;SDS011;20721;47.402;8.550;2024-03-06T04:52:50;1.35;;;1.35;;
2710;SDS011;20721;47.402;8.550;2024-03-06T04:54:49;1.12;;;1.12;;
2710;SDS011;20721;47.402;8.550;2024-03-06T04:56:49;1.62;;;1.62;;
2710;SDS011;20721;47.402;8.550;2024-03-06T04:58:50;1.86;;;1.86;;
2710;SDS011;20721;47.402;8.550;2024-03-06T05:00:49;1.81;;;1.81;;
2710;SDS011;20721;47.402;8.550;2024-03-06T05:58:49;1.77;;;1.77;;
2710;SDS011;20721;47.402;8.550;2024-03-06T06:00:49;2.96;;;2.96;;
2710;SDS011;20721;47.402;8.550;2024-03-06T06:02:50;1.91;;;1.91;;
2710;SDS011;20721;47.402;8.550;2024-03-06T06:05:50;2.38;;;2.38;;
2710;SDS011;20721;47.402;8.550;2024-03-06T06:07:50;2.07;;;2.07;;
2710;SDS011;20721;47.402;8.550;2024-03-06T06:09:50;2.13;;;2.13;;
2710;SDS011;20721;47.402;8.550;2024-03-06T06:11:50;3.05;;;3.05;;
2710;SDS011;20721;47.402;8.550;2024-03-06T06:13:50;2.59;;;2.59;;
2710;SDS011;20721;47.402;8.550;2024-03-06T06:15:50;2.89;;;2.89;;
2710;SDS011;20721;47.402;8.550;2024-03-06T06:17:53;3.80;;;3.80;;
2710;SDS011;20721;47.402;8.550;2024-03-06T06:19:51;2.97;;;2.97;;
2710;SDS011;20721;47.402;8.550;2024-03-06T06:21:51;3.06;;;3.06;;
2710;SDS011;20721;47.402;8.550;2024-03-06T06:23:50;3.60;;;3.60;;
2710;SDS011;20721;47.402;8.550;2024-03-06T06:25:50;6.53;;;6.53;;
2710;SDS011;20721;47.402;8.550;2024-03-06T06:27:50;3.66;;;3.66;;
2710;SDS011;20721;47.402;8.550;2024-03-06T06:29:50;3.31;;;3.31;;
2710;SDS011;20721;47.402;8.550;2024-03-06T06:31:50;2.69;;;2.69;;
2710;SDS011;20721;47.402;8.550;2024-03-06T06:33:50;2.63;;;2.63;;
2710;SDS011;20721;47.402;8.550;2024-03-06T06:35:50;2.85;;;2.85;;
2710;SDS011;20721;47.402;8.550;2024-03-06T06:37:50;2.58;;;2.58;;
2710;SDS011;20721;47.402;8.550;2024-03-06T06:39:50;3.14;;;3.14;;
2710;SDS011;20721;47.402;8.550;2024-03-06T06:41:50;3.45;;;3.45;;
2710;SDS011;20721;47.402;8.550;2024-03-06T06:43:51;2.78;;;2.78;;
2710;SDS011;20721;47.402;8.550;2024-03-06T06:45:50;2.77;;;2.77;;
2710;SDS011;20721;47.402;8.550;2024-03-06T06:47:50;2.73;;;2.73;;
2710;SDS011;20721;47.402;8.550;2024-03-06T06:49:50;3.48;;;3.48;;
2710;SDS011;20721;47.402;8.550;2024-03-06T06:51:50;2.61;;;2.61;;
2710;SDS011;20721;47.402;8.550;2024-03-06T06:53:51;2.91;;;2.91;;
2710;SDS011;20721;47.402;8.550;2024-03-06T06:55:50;2.61;;;2.61;;
2710;SDS011;20721;47.402;8.550;2024-03-06T06:57:50;2.25;;;2.25;;
2710;SDS011;20721;47.402;8.550;2024-03-06T06:59:50;2.33;;;2.33;;
2710;SDS011;20721;47.402;8.550;2024-03-06T07:01:51;2.66;;;2.66;;
2710;SDS011;20721;47.402;8.550;2024-03-06T07:03:50;2.69;;;2.69;;
2710;SDS011;20721;47.402;8.550;2024-03-06T07:05:52;2.73;;;2.73;;
2710;SDS011;20721;47.402;8.550;2024-03-06T07:07:50;2.50;;;2.50;;
2710;SDS011;20721;47.402;8.550;2024-03-06T07:09:50;2.83;;;2.83;;
2710;SDS011;20721;47.402;8.550;2024-03-06T07:11:50;2.97;;;2.97;;
2710;SDS011;20721;47.402;8.550;2024-03-06T07:13:50;2.80;;;2.80;;
2710;SDS011;20721;47.402;8.550;2024-03-06T07:15:50;2.30;;;2.30;;
2710;SDS011;20721;47.402;8.550;2024-03-06T07:17:50;2.69;;;2.69;;
2710;SDS011;20721;47.402;8.550;2024-03-06T07:19:50;2.91;;;2.91;;
2710;SDS011;20721;47.402;8.550;2024-03-06T07:21:50;2.32;;;2.32;;
2710;SDS011;20721;47.402;8.550;2024-03-06T07:23:50;2.74;;;2.74;;
2710;SDS011;20721;47.402;8.550;2024-03-06T07:25:50;3.11;;;3.11;;
2710;SDS011;20721;47.402;8.550;2024-03-06T07:27:50;2.44;;;2.44;;
2710;SDS011;20721;47.402;8.550;2024-03-06T07:29:50;2.72;;;2.72;;
2710;SDS011;20721;47.402;8.550;2024-03-06T07:31:51;2.69;;;2.69;;
2710;SDS011;20721;47.402;8.550;2024-03-06T07:33:50;2.43;;;2.43;;
2710;SDS011;20721;47.402;8.550;2024-03-06T07:35:50;2.52;;;2.52;;
2710;SDS011;20721;47.402;8.550;2024-03-06T07:37:50;2.24;;;2.24;;
2710;SDS011;20721;47.402;8.550;2024-03-06T07:39:50;2.41;;;2.41;;
2710;SDS011;20721;47.402;8.550;2024-03-06T07:41:50;2.77;;;2.77;;
2710;SDS011;20721;47.402;8.550;2024-03-06T07:43:50;1.93;;;1.93;;
2710;SDS011;20721;47.402;8.550;2024-03-06T07:45:50;2.58;;;2.58;;
2710;SDS011;20721;47.402;8.550;2024-03-06T07:47:51;1.96;;;1.96;;
2710;SDS011;20721;47.402;8.550;2024-03-06T07:49:50;2.04;;;2.04;;
2710;SDS011;20721;47.402;8.550;2024-03-06T07:51:51;2.44;;;2.44;;
2710;SDS011;20721;47.402;8.550;2024-03-06T07:53:50;2.35;;;2.35;;
2710;SDS011;20721;47.402;8.550;2024-03-06T07:55:50;3.04;;;3.00;;
2710;SDS011;20721;47.402;8.550;2024-03-06T07:57:50;2.59;;;2.59;;
2710;SDS011;20721;47.402;8.550;2024-03-06T07:59:50;2.25;;;2.25;;
2710;SDS011;20721;47.402;8.550;2024-03-06T08:01:50;2.38;;;2.38;;
2710;SDS011;20721;47.402;8.550;2024-03-06T08:03:50;2.58;;;2.58;;
2710;SDS011;20721;47.402;8.550;2024-03-06T08:05:51;2.06;;;2.06;;
2710;SDS011;20721;47.402;8.550;2024-03-06T08:07:52;2.92;;;2.92;;
2710;SDS011;20721;47.402;8.550;2024-03-06T08:09:50;3.23;;;3.23;;
2710;SDS011;20721;47.402;8.550;2024-03-06T08:11:50;2.62;;;2.62;;
2710;SDS011;20721;47.402;8.550;2024-03-06T08:13:56;2.71;;;2.71;;
2710;SDS011;20721;47.402;8.550;2024-03-06T08:15:50;3.08;;;3.08;;
2710;SDS011;20721;47.402;8.550;2024-03-06T08:17:52;3.26;;;3.26;;
2710;SDS011;20721;47.402;8.550;2024-03-06T08:19:50;3.05;;;3.05;;
2710;SDS011;20721;47.402;8.550;2024-03-06T08:21:50;2.21;;;2.21;;
2710;SDS011;20721;47.402;8.550;2024-03-06T08:23:50;3.24;;;3.24;;
2710;SDS011;20721;47.402;8.550;2024-03-06T08:25:50;8.33;;;8.28;;
2710;SDS011;20721;47.402;8.550;2024-03-06T08:27:50;9.32;;;9.20;;
2710;SDS011;20721;47.402;8.550;2024-03-06T08:29:50;4.56;;;4.49;;
2710;SDS011;20721;47.402;8.550;2024-03-06T08:31:50;3.48;;;3.44;;
2710;SDS011;20721;47.402;8.550;2024-03-06T08:33:50;3.24;;;3.21;;
2710;SDS011;20721;47.402;8.550;2024-03-06T08:36:50;7.48;;;7.45;;
2710;SDS011;20721;47.402;8.550;2024-03-06T08:38:51;16.49;;;16.20;;
2710;SDS011;20721;47.402;8.550;2024-03-06T08:40:55;11.53;;;11.29;;
2710;SDS011;20721;47.402;8.550;2024-03-06T08:42:50;4.44;;;4.41;;
2710;SDS011;20721;47.402;8.550;2024-03-06T08:45:50;5.32;;;5.30;;
2710;SDS011;20721;47.402;8.550;2024-03-06T08:47:50;4.15;;;4.11;;
2710;SDS011;20721;47.402;8.550;2024-03-06T08:49:50;4.68;;;4.65;;
2710;SDS011;20721;47.402;8.550;2024-03-06T08:51:50;3.23;;;3.23;;
2710;SDS011;20721;47.402;8.550;2024-03-06T08:53:50;2.93;;;2.93;;
2710;SDS011;20721;47.402;8.550;2024-03-06T08:55:50;2.98;;;2.98;;
2710;SDS011;20721;47.402;8.550;2024-03-06T08:57:50;2.54;;;2.54;;
2710;SDS011;20721;47.402;8.550;2024-03-06T08:59:50;3.24;;;3.24;;
2710;SDS011;20721;47.402;8.550;2024-03-06T09:01:51;3.01;;;3.01;;
2710;SDS011;20721;47.402;8.550;2024-03-06T09:03:50;3.03;;;3.03;;
2710;SDS011;20721;47.402;8.550;2024-03-06T09:05:50;2.55;;;2.55;;
2710;SDS011;20721;47.402;8.550;2024-03-06T09:07:51;2.59;;;2.59;;
2710;SDS011;20721;47.402;8.550;2024-03-06T09:10:50;2.78;;;2.78;;
2710;SDS011;20721;47.402;8.550;2024-03-06T09:12:50;2.67;;;2.67;;
2710;SDS011;20721;47.402;8.550;2024-03-06T09:14:51;2.39;;;2.39;;
2710;SDS011;20721;47.402;8.550;2024-03-06T09:16:50;2.76;;;2.76;;
2710;SDS011;20721;47.402;8.550;2024-03-06T09:18:50;3.07;;;3.07;;
2710;SDS011;20721;47.402;8.550;2024-03-06T09:20:50;2.69;;;2.69;;
2710;SDS011;20721;47.402;8.550;2024-03-06T09:22:51;2.41;;;2.41;;
2710;SDS011;20721;47.402;8.550;2024-03-06T09:24:50;2.52;;;2.52;;
2710;SDS011;20721;47.402;8.550;2024-03-06T09:26:50;3.60;;;3.60;;
2710;SDS011;20721;47.402;8.550;2024-03-06T09:28:50;2.98;;;2.98;;
2710;SDS011;20721;47.402;8.550;2024-03-06T09:30:51;2.73;;;2.73;;
2710;SDS011;20721;47.402;8.550;2024-03-06T09:32:51;2.42;;;2.42;;
2710;SDS011;20721;47.402;8.550;2024-03-06T09:34:50;2.41;;;2.41;;
2710;SDS011;20721;47.402;8.550;2024-03-06T09:37:50;2.13;;;2.13;;
2710;SDS011;20721;47.402;8.550;2024-03-06T09:39:50;2.49;;;2.49;;
2710;SDS011;20721;47.402;8.550;2024-03-06T09:41:51;2.41;;;2.41;;
2710;SDS011;20721;47.402;8.550;2024-03-06T09:43:53;2.54;;;2.54;;
2710;SDS011;20721;47.402;8.550;2024-03-06T09:45:50;2.75;;;2.75;;
2710;SDS011;20721;47.402;8.550;2024-03-06T09:47:50;2.75;;;2.75;;
2710;SDS011;20721;47.402;8.550;2024-03-06T09:49:51;2.54;;;2.54;;
2710;SDS011;20721;47.402;8.550;2024-03-06T09:51:54;3.48;;;3.48;;
2710;SDS011;20721;47.402;8.550;2024-03-06T09:53:51;2.49;;;2.49;;
2710;SDS011;20721;47.402;8.550;2024-03-06T09:55:50;2.09;;;2.09;;
2710;SDS011;20721;47.402;8.550;2024-03-06T09:58:50;2.50;;;2.50;;
2710;SDS011;20721;47.402;8.550;2024-03-06T10:00:50;2.20;;;2.20;;
2710;SDS011;20721;47.402;8.550;2024-03-06T10:02:58;2.58;;;2.58;;
2710;SDS011;20721;47.402;8.550;2024-03-06T10:04:50;2.74;;;2.74;;
2710;SDS011;20721;47.402;8.550;2024-03-06T10:06:54;2.59;;;2.59;;
2710;SDS011;20721;47.402;8.550;2024-03-06T10:08:52;2.83;;;2.83;;
2710;SDS011;20721;47.402;8.550;2024-03-06T10:10:51;2.71;;;2.71;;
2710;SDS011;20721;47.402;8.550;2024-03-06T10:12:50;2.78;;;2.78;;
2710;SDS011;20721;47.402;8.550;2024-03-06T10:14:58;2.48;;;2.48;;
2710;SDS011;20721;47.402;8.550;2024-03-06T10:17:02;2.95;;;2.95;;
2710;SDS011;20721;47.402;8.550;2024-03-06T10:18:50;3.17;;;3.17;;
2710;SDS011;20721;47.402;8.550;2024-03-06T10:20:53;2.38;;;2.38;;
2710;SDS011;20721;47.402;8.550;2024-03-06T10:22:51;2.50;;;2.50;;
2710;SDS011;20721;47.402;8.550;2024-03-06T10:24:50;4.83;;;4.83;;
2710;SDS011;20721;47.402;8.550;2024-03-06T10:26:51;3.09;;;3.09;;
2710;SDS011;20721;47.402;8.550;2024-03-06T10:28:54;2.63;;;2.63;;
2710;SDS011;20721;47.402;8.550;2024-03-06T10:31:02;2.54;;;2.54;;
2710;SDS011;20721;47.402;8.550;2024-03-06T10:32:51;2.63;;;2.63;;
2710;SDS011;20721;47.402;8.550;2024-03-06T10:34:54;2.57;;;2.57;;
2710;SDS011;20721;47.402;8.550;2024-03-06T10:37:52;2.22;;;2.22;;
2710;SDS011;20721;47.402;8.550;2024-03-06T10:39:52;2.18;;;2.18;;
2710;SDS011;20721;47.402;8.550;2024-03-06T10:41:52;2.44;;;2.44;;
2710;SDS011;20721;47.402;8.550;2024-03-06T10:43:52;2.27;;;2.27;;
2710;SDS011;20721;47.402;8.550;2024-03-06T10:46:57;2.66;;;2.66;;
2710;SDS011;20721;47.402;8.550;2024-03-06T10:48:50;2.92;;;2.92;;
2710;SDS011;20721;47.402;8.550;2024-03-06T10:50:55;2.79;;;2.79;;
2710;SDS011;20721;47.402;8.550;2024-03-06T10:52:53;2.48;;;2.48;;
2710;SDS011;20721;47.402;8.550;2024-03-06T10:54:53;2.60;;;2.60;;
2710;SDS011;20721;47.402;8.550;2024-03-06T10:56:52;3.03;;;3.03;;
2710;SDS011;20721;47.402;8.550;2024-03-06T10:58:51;2.46;;;2.46;;
2710;SDS011;20721;47.402;8.550;2024-03-06T11:00:51;2.65;;;2.65;;
2710;SDS011;20721;47.402;8.550;2024-03-06T11:02:51;2.79;;;2.79;;
2710;SDS011;20721;47.402;8.550;2024-03-06T11:04:51;2.76;;;2.76;;
2710;SDS011;20721;47.402;8.550;2024-03-06T11:06:51;2.02;;;2.02;;
2710;SDS011;20721;47.402;8.550;2024-03-06T11:08:50;2.88;;;2.88;;
2710;SDS011;20721;47.402;8.550;2024-03-06T11:10:51;2.27;;;2.27;;
2710;SDS011;20721;47.402;8.550;2024-03-06T11:12:52;2.35;;;2.35;;
2710;SDS011;20721;47.402;8.550;2024-03-06T11:14:51;2.90;;;2.90;;
2710;SDS011;20721;47.402;8.550;2024-03-06T11:17:09;2.87;;;2.87;;
2710;SDS011;20721;47.402;8.550;2024-03-06T11:18:51;2.82;;;2.82;;
2710;SDS011;20721;47.402;8.550;2024-03-06T11:20:50;2.89;;;2.89;;
2710;SDS011;20721;47.402;8.550;2024-03-06T11:24:51;3.06;;;3.06;;
2710;SDS011;20721;47.402;8.550;2024-03-06T11:26:56;2.50;;;2.50;;
2710;SDS011;20721;47.402;8.550;2024-03-06T11:28:52;2.86;;;2.86;;
2710;SDS011;20721;47.402;8.550;2024-03-06T11:32:06;5.78;;;5.78;;
2710;SDS011;20721;47.402;8.550;2024-03-06T11:33:53;2.81;;;2.81;;
2710;SDS011;20721;47.402;8.550;2024-03-06T11:36:53;2.62;;;2.62;;
2710;SDS011;20721;47.402;8.550;2024-03-06T11:39:59;2.98;;;2.98;;
2710;SDS011;20721;47.402;8.550;2024-03-06T11:42:50;2.80;;;2.80;;
2710;SDS011;20721;47.402;8.550;2024-03-06T11:45:12;3.76;;;3.76;;
2710;SDS011;20721;47.402;8.550;2024-03-06T11:48:11;3.00;;;3.00;;
2710;SDS011;20721;47.402;8.550;2024-03-06T11:49:51;2.52;;;2.52;;
2710;SDS011;20721;47.402;8.550;2024-03-06T11:51:51;2.46;;;2.46;;
2710;SDS011;20721;47.402;8.550;2024-03-06T11:53:54;2.29;;;2.29;;
2710;SDS011;20721;47.402;8.550;2024-03-06T11:55:51;2.57;;;2.57;;
2710;SDS011;20721;47.402;8.550;2024-03-06T11:57:50;2.31;;;2.31;;
2710;SDS011;20721;47.402;8.550;2024-03-06T11:59:51;2.73;;;2.73;;
2710;SDS011;20721;47.402;8.550;2024-03-06T12:01:53;2.64;;;2.64;;
2710;SDS011;20721;47.402;8.550;2024-03-06T12:03:51;2.59;;;2.59;;
2710;SDS011;20721;47.402;8.550;2024-03-06T12:05:52;2.48;;;2.48;;
2710;SDS011;20721;47.402;8.550;2024-03-06T12:07:56;2.30;;;2.30;;
2710;SDS011;20721;47.402;8.550;2024-03-06T12:09:54;2.70;;;2.70;;
2710;SDS011;20721;47.402;8.550;2024-03-06T12:11:55;2.93;;;2.93;;
2710;SDS011;20721;47.402;8.550;2024-03-06T12:14:56;4.58;;;4.58;;
2710;SDS011;20721;47.402;8.550;2024-03-06T12:16:55;2.47;;;2.47;;
2710;SDS011;20721;47.402;8.550;2024-03-06T12:18:54;3.00;;;3.00;;
2710;SDS011;20721;47.402;8.550;2024-03-06T12:20:52;3.27;;;3.27;;
2710;SDS011;20721;47.402;8.550;2024-03-06T12:22:54;2.37;;;2.37;;
2710;SDS011;20721;47.402;8.550;2024-03-06T12:24:58;2.80;;;2.80;;
2710;SDS011;20721;47.402;8.550;2024-03-06T12:27:02;2.51;;;2.51;;
2710;SDS011;20721;47.402;8.550;2024-03-06T12:28:51;2.67;;;2.67;;
2710;SDS011;20721;47.402;8.550;2024-03-06T12:30:52;2.60;;;2.60;;
2710;SDS011;20721;47.402;8.550;2024-03-06T12:32:59;2.20;;;2.20;;
2710;SDS011;20721;47.402;8.550;2024-03-06T12:34:56;2.76;;;2.76;;
2710;SDS011;20721;47.402;8.550;2024-03-06T12:36:50;2.37;;;2.37;;
2710;SDS011;20721;47.402;8.550;2024-03-06T12:38:54;3.39;;;3.39;;
2710;SDS011;20721;47.402;8.550;2024-03-06T12:40:51;3.03;;;3.03;;
2710;SDS011;20721;47.402;8.550;2024-03-06T12:42:51;2.78;;;2.78;;
2710;SDS011;20721;47.402;8.550;2024-03-06T12:44:51;2.67;;;2.67;;
2710;SDS011;20721;47.402;8.550;2024-03-06T12:46:50;2.69;;;2.69;;
2710;SDS011;20721;47.402;8.550;2024-03-06T12:48:50;2.67;;;2.67;;
2710;SDS011;20721;47.402;8.550;2024-03-06T12:50:52;2.20;;;2.20;;
2710;SDS011;20721;47.402;8.550;2024-03-06T12:52:51;2.63;;;2.63;;
2710;SDS011;20721;47.402;8.550;2024-03-06T12:54:50;2.31;;;2.31;;
2710;SDS011;20721;47.402;8.550;2024-03-06T12:56:51;2.72;;;2.72;;
2710;SDS011;20721;47.402;8.550;2024-03-06T12:58:51;2.89;;;2.89;;
2710;SDS011;20721;47.402;8.550;2024-03-06T13:00:51;2.64;;;2.64;;
2710;SDS011;20721;47.402;8.550;2024-03-06T13:02:52;2.30;;;2.30;;
2710;SDS011;20721;47.402;8.550;2024-03-06T13:04:50;2.36;;;2.36;;
2710;SDS011;20721;47.402;8.550;2024-03-06T13:06:50;2.92;;;2.92;;
2710;SDS011;20721;47.402;8.550;2024-03-06T13:08:51;3.07;;;3.07;;
2710;SDS011;20721;47.402;8.550;2024-03-06T13:10:51;2.38;;;2.38;;
2710;SDS011;20721;47.402;8.550;2024-03-06T13:12:50;2.33;;;2.33;;
2710;SDS011;20721;47.402;8.550;2024-03-06T13:14:51;3.13;;;3.13;;
2710;SDS011;20721;47.402;8.550;2024-03-06T13:16:51;3.03;;;3.03;;
2710;SDS011;20721;47.402;8.550;2024-03-06T13:18:51;2.60;;;2.60;;
2710;SDS011;20721;47.402;8.550;2024-03-06T13:20:51;2.67;;;2.67;;
2710;SDS011;20721;47.402;8.550;2024-03-06T13:22:50;2.71;;;2.71;;
2710;SDS011;20721;47.402;8.550;2024-03-06T13:24:55;2.84;;;2.84;;
2710;SDS011;20721;47.402;8.550;2024-03-06T13:27:51;3.03;;;3.03;;
2710;SDS011;20721;47.402;8.550;2024-03-06T13:29:51;2.93;;;2.93;;
2710;SDS011;20721;47.402;8.550;2024-03-06T13:31:51;2.80;;;2.80;;
2710;SDS011;20721;47.402;8.550;2024-03-06T13:33:51;2.90;;;2.90;;
2710;SDS011;20721;47.402;8.550;2024-03-06T13:35:52;2.70;;;2.70;;
2710;SDS011;20721;47.402;8.550;2024-03-06T13:37:51;3.84;;;3.84;;
2710;SDS011;20721;47.402;8.550;2024-03-06T13:39:51;4.04;;;4.04;;